sensor_id;sensor_type;location;lat;lon;timestamp;temperature;humidity
16881;DHT22;8557;52.068;5.198;2023-02-28T00:01:06;2.30;99.90
16881;DHT22;8557;52.068;5.198;2023-02-28T00:03:33;2.30;99.90
16881;DHT22;8557;52.068;5.198;2023-02-28T00:06:01;2.30;99.90
16881;DHT22;8557;52.068;5.198;2023-02-28T00:08:28;2.40;99.90
16881;DHT22;8557;52.068;5.198;2023-02-28T00:10:55;2.40;99.90
16881;DHT22;8557;52.068;5.198;2023-02-28T00:13:23;2.40;99.90
16881;DHT22;8557;52.068;5.198;2023-02-28T00:15:59;2.50;99.90
16881;DHT22;8557;52.068;5.198;2023-02-28T00:18:26;2.50;99.90
16881;DHT22;8557;52.068;5.198;2023-02-28T00:20:53;2.50;99.90
16881;DHT22;8557;52.068;5.198;2023-02-28T00:23:19;2.60;99.90
16881;DHT22;8557;52.068;5.198;2023-02-28T00:25:46;2.70;99.90
16881;DHT22;8557;52.068;5.198;2023-02-28T00:28:13;2.80;99.90
16881;DHT22;8557;52.068;5.198;2023-02-28T00:30:41;2.80;99.90
16881;DHT22;8557;52.068;5.198;2023-02-28T00:33:08;2.80;99.90
16881;DHT22;8557;52.068;5.198;2023-02-28T00:35:35;2.80;99.90
16881;DHT22;8557;52.068;5.198;2023-02-28T00:38:02;2.90;99.90
16881;DHT22;8557;52.068;5.198;2023-02-28T00:40:29;2.90;99.90
16881;DHT22;8557;52.068;5.198;2023-02-28T00:42:57;3.00;99.90
16881;DHT22;8557;52.068;5.198;2023-02-28T00:45:24;3.00;99.90
16881;DHT22;8557;52.068;5.198;2023-02-28T00:47:52;3.10;99.90
16881;DHT22;8557;52.068;5.198;2023-02-28T00:50:19;3.10;99.90
16881;DHT22;8557;52.068;5.198;2023-02-28T00:52:46;3.20;99.90
16881;DHT22;8557;52.068;5.198;2023-02-28T00:55:13;3.30;99.90
16881;DHT22;8557;52.068;5.198;2023-02-28T00:57:40;3.30;99.90
16881;DHT22;8557;52.068;5.198;2023-02-28T01:00:08;3.40;99.90
16881;DHT22;8557;52.068;5.198;2023-02-28T01:02:36;3.30;99.90
16881;DHT22;8557;52.068;5.198;2023-02-28T01:05:05;3.30;99.90
16881;DHT22;8557;52.068;5.198;2023-02-28T01:07:32;3.30;99.90
16881;DHT22;8557;52.068;5.198;2023-02-28T01:09:59;3.30;99.90
16881;DHT22;8557;52.068;5.198;2023-02-28T01:12:26;3.40;99.90
16881;DHT22;8557;52.068;5.198;2023-02-28T01:14:52;3.40;99.90
16881;DHT22;8557;52.068;5.198;2023-02-28T01:17:19;3.40;99.90
16881;DHT22;8557;52.068;5.198;2023-02-28T01:19:46;3.40;99.90
16881;DHT22;8557;52.068;5.198;2023-02-28T01:22:14;3.40;99.90
16881;DHT22;8557;52.068;5.198;2023-02-28T01:24:41;3.40;99.90
16881;DHT22;8557;52.068;5.198;2023-02-28T01:27:08;3.40;99.90
16881;DHT22;8557;52.068;5.198;2023-02-28T01:29:35;3.40;99.90
16881;DHT22;8557;52.068;5.198;2023-02-28T01:32:01;3.40;99.90
16881;DHT22;8557;52.068;5.198;2023-02-28T01:34:28;3.50;99.90
16881;DHT22;8557;52.068;5.198;2023-02-28T01:36:55;3.40;99.90
16881;DHT22;8557;52.068;5.198;2023-02-28T01:39:25;3.40;99.90
16881;DHT22;8557;52.068;5.198;2023-02-28T01:41:52;3.50;99.90
16881;DHT22;8557;52.068;5.198;2023-02-28T01:47:40;3.50;99.90
16881;DHT22;8557;52.068;5.198;2023-02-28T01:50:11;3.50;99.90
16881;DHT22;8557;52.068;5.198;2023-02-28T01:52:40;3.50;99.90
16881;DHT22;8557;52.068;5.198;2023-02-28T01:55:10;3.50;99.90
16881;DHT22;8557;52.068;5.198;2023-02-28T01:57:40;3.40;99.90
16881;DHT22;8557;52.068;5.198;2023-02-28T02:00:10;3.50;99.90
16881;DHT22;8557;52.068;5.198;2023-02-28T02:02:41;3.50;99.90
16881;DHT22;8557;52.068;5.198;2023-02-28T02:05:10;3.70;99.90
16881;DHT22;8557;52.068;5.198;2023-02-28T02:07:39;3.70;99.90
16881;DHT22;8557;52.068;5.198;2023-02-28T02:10:25;3.80;99.90
16881;DHT22;8557;52.068;5.198;2023-02-28T02:13:14;3.80;99.90
16881;DHT22;8557;52.068;5.198;2023-02-28T02:15:53;3.70;99.90
16881;DHT22;8557;52.068;5.198;2023-02-28T02:18:26;3.70;99.90
16881;DHT22;8557;52.068;5.198;2023-02-28T02:21:17;3.80;99.90
16881;DHT22;8557;52.068;5.198;2023-02-28T02:24:29;3.80;99.90
16881;DHT22;8557;52.068;5.198;2023-02-28T02:27:13;3.70;99.90
16881;DHT22;8557;52.068;5.198;2023-02-28T02:33:28;3.60;99.90
16881;DHT22;8557;52.068;5.198;2023-02-28T02:36:02;3.60;99.90
16881;DHT22;8557;52.068;5.198;2023-02-28T02:38:33;3.60;99.90
16881;DHT22;8557;52.068;5.198;2023-02-28T02:41:12;3.60;99.90
16881;DHT22;8557;52.068;5.198;2023-02-28T02:43:44;3.70;99.90
16881;DHT22;8557;52.068;5.198;2023-02-28T02:46:16;3.70;99.90
16881;DHT22;8557;52.068;5.198;2023-02-28T02:48:45;3.60;99.90
16881;DHT22;8557;52.068;5.198;2023-02-28T02:51:15;3.60;99.90
16881;DHT22;8557;52.068;5.198;2023-02-28T02:53:46;3.60;99.90
16881;DHT22;8557;52.068;5.198;2023-02-28T02:56:17;3.60;99.90
16881;DHT22;8557;52.068;5.198;2023-02-28T02:58:47;3.60;99.90
16881;DHT22;8557;52.068;5.198;2023-02-28T03:01:19;3.70;99.90
16881;DHT22;8557;52.068;5.198;2023-02-28T03:03:55;3.60;99.90
16881;DHT22;8557;52.068;5.198;2023-02-28T03:06:23;3.70;99.90
16881;DHT22;8557;52.068;5.198;2023-02-28T03:08:50;3.60;99.90
16881;DHT22;8557;52.068;5.198;2023-02-28T03:11:17;3.70;99.90
16881;DHT22;8557;52.068;5.198;2023-02-28T03:14:02;3.70;99.90
16881;DHT22;8557;52.068;5.198;2023-02-28T03:16:36;3.70;99.90
16881;DHT22;8557;52.068;5.198;2023-02-28T03:19:23;3.70;99.90
16881;DHT22;8557;52.068;5.198;2023-02-28T03:22:07;3.70;99.90
16881;DHT22;8557;52.068;5.198;2023-02-28T03:24:42;3.70;99.90
16881;DHT22;8557;52.068;5.198;2023-02-28T03:27:13;3.70;99.90
16881;DHT22;8557;52.068;5.198;2023-02-28T03:29:46;3.70;99.90
16881;DHT22;8557;52.068;5.198;2023-02-28T03:32:20;3.80;99.90
16881;DHT22;8557;52.068;5.198;2023-02-28T03:34:53;3.70;99.90
16881;DHT22;8557;52.068;5.198;2023-02-28T03:37:25;3.70;99.90
16881;DHT22;8557;52.068;5.198;2023-02-28T03:39:57;3.70;99.90
16881;DHT22;8557;52.068;5.198;2023-02-28T03:42:28;3.60;99.90
16881;DHT22;8557;52.068;5.198;2023-02-28T03:44:57;3.70;99.90
16881;DHT22;8557;52.068;5.198;2023-02-28T03:47:29;3.70;99.90
16881;DHT22;8557;52.068;5.198;2023-02-28T03:49:59;3.70;99.90
16881;DHT22;8557;52.068;5.198;2023-02-28T03:52:32;3.70;99.90
16881;DHT22;8557;52.068;5.198;2023-02-28T03:55:02;3.70;99.90
16881;DHT22;8557;52.068;5.198;2023-02-28T03:57:36;3.70;99.90
16881;DHT22;8557;52.068;5.198;2023-02-28T04:00:07;3.70;99.90
16881;DHT22;8557;52.068;5.198;2023-02-28T04:02:35;3.70;99.90
16881;DHT22;8557;52.068;5.198;2023-02-28T04:05:02;3.70;99.90
16881;DHT22;8557;52.068;5.198;2023-02-28T04:07:31;3.70;99.90
16881;DHT22;8557;52.068;5.198;2023-02-28T04:09:59;3.70;99.90
16881;DHT22;8557;52.068;5.198;2023-02-28T04:12:26;3.70;99.90
16881;DHT22;8557;52.068;5.198;2023-02-28T04:14:52;3.80;99.90
16881;DHT22;8557;52.068;5.198;2023-02-28T04:17:19;3.80;99.90
16881;DHT22;8557;52.068;5.198;2023-02-28T04:19:46;3.80;99.90
16881;DHT22;8557;52.068;5.198;2023-02-28T04:22:13;3.80;99.90
16881;DHT22;8557;52.068;5.198;2023-02-28T04:24:41;3.80;99.90
16881;DHT22;8557;52.068;5.198;2023-02-28T04:27:09;3.80;99.90
16881;DHT22;8557;52.068;5.198;2023-02-28T04:29:36;3.80;99.90
16881;DHT22;8557;52.068;5.198;2023-02-28T04:32:04;3.90;99.90
16881;DHT22;8557;52.068;5.198;2023-02-28T04:34:31;3.80;99.90
16881;DHT22;8557;52.068;5.198;2023-02-28T04:36:58;3.80;99.90
16881;DHT22;8557;52.068;5.198;2023-02-28T04:39:25;3.80;99.90
16881;DHT22;8557;52.068;5.198;2023-02-28T04:41:54;3.80;99.90
16881;DHT22;8557;52.068;5.198;2023-02-28T04:44:21;3.80;99.90
16881;DHT22;8557;52.068;5.198;2023-02-28T04:46:49;3.90;99.90
16881;DHT22;8557;52.068;5.198;2023-02-28T04:49:15;3.80;99.90
16881;DHT22;8557;52.068;5.198;2023-02-28T04:51:43;3.80;99.90
16881;DHT22;8557;52.068;5.198;2023-02-28T04:54:09;3.80;99.90
16881;DHT22;8557;52.068;5.198;2023-02-28T04:56:36;3.80;99.90
16881;DHT22;8557;52.068;5.198;2023-02-28T04:59:04;3.70;99.90
16881;DHT22;8557;52.068;5.198;2023-02-28T05:01:33;3.60;99.90
16881;DHT22;8557;52.068;5.198;2023-02-28T05:04:02;3.60;99.90
16881;DHT22;8557;52.068;5.198;2023-02-28T05:06:31;3.60;99.90
16881;DHT22;8557;52.068;5.198;2023-02-28T05:08:59;3.50;99.90
16881;DHT22;8557;52.068;5.198;2023-02-28T05:11:27;3.60;99.90
16881;DHT22;8557;52.068;5.198;2023-02-28T05:13:59;3.60;99.90
16881;DHT22;8557;52.068;5.198;2023-02-28T05:16:27;3.60;99.90
16881;DHT22;8557;52.068;5.198;2023-02-28T05:18:54;3.50;99.90
16881;DHT22;8557;52.068;5.198;2023-02-28T05:21:24;3.60;99.90
16881;DHT22;8557;52.068;5.198;2023-02-28T05:23:52;3.60;99.90
16881;DHT22;8557;52.068;5.198;2023-02-28T05:26:19;3.70;99.90
16881;DHT22;8557;52.068;5.198;2023-02-28T05:28:45;3.80;99.90
16881;DHT22;8557;52.068;5.198;2023-02-28T05:31:13;3.70;99.90
16881;DHT22;8557;52.068;5.198;2023-02-28T05:33:42;3.70;99.90
16881;DHT22;8557;52.068;5.198;2023-02-28T05:36:09;3.70;99.90
16881;DHT22;8557;52.068;5.198;2023-02-28T05:38:36;3.60;99.90
16881;DHT22;8557;52.068;5.198;2023-02-28T05:41:06;3.60;99.90
16881;DHT22;8557;52.068;5.198;2023-02-28T05:43:33;3.50;99.90
16881;DHT22;8557;52.068;5.198;2023-02-28T05:46:02;3.50;99.90
16881;DHT22;8557;52.068;5.198;2023-02-28T05:48:29;3.40;99.90
16881;DHT22;8557;52.068;5.198;2023-02-28T05:50:58;3.30;99.90
16881;DHT22;8557;52.068;5.198;2023-02-28T05:53:25;3.30;99.90
16881;DHT22;8557;52.068;5.198;2023-02-28T05:55:52;3.30;99.90
16881;DHT22;8557;52.068;5.198;2023-02-28T05:58:19;3.20;99.90
16881;DHT22;8557;52.068;5.198;2023-02-28T06:00:46;3.10;99.90
16881;DHT22;8557;52.068;5.198;2023-02-28T06:03:13;3.00;99.90
16881;DHT22;8557;52.068;5.198;2023-02-28T06:05:40;3.00;99.90
16881;DHT22;8557;52.068;5.198;2023-02-28T06:08:08;2.90;99.90
16881;DHT22;8557;52.068;5.198;2023-02-28T06:10:35;2.90;99.90
16881;DHT22;8557;52.068;5.198;2023-02-28T06:13:03;2.90;99.90
16881;DHT22;8557;52.068;5.198;2023-02-28T06:15:30;2.90;99.90
16881;DHT22;8557;52.068;5.198;2023-02-28T06:17:57;2.80;99.90
16881;DHT22;8557;52.068;5.198;2023-02-28T06:20:25;2.80;99.90
16881;DHT22;8557;52.068;5.198;2023-02-28T06:22:54;2.80;99.90
16881;DHT22;8557;52.068;5.198;2023-02-28T06:25:23;2.80;99.90
16881;DHT22;8557;52.068;5.198;2023-02-28T06:27:49;2.80;99.90
16881;DHT22;8557;52.068;5.198;2023-02-28T06:30:16;2.80;99.90
16881;DHT22;8557;52.068;5.198;2023-02-28T06:32:43;2.80;99.90
16881;DHT22;8557;52.068;5.198;2023-02-28T06:35:10;2.80;99.90
16881;DHT22;8557;52.068;5.198;2023-02-28T06:37:37;2.80;99.90
16881;DHT22;8557;52.068;5.198;2023-02-28T06:40:04;2.80;99.90
16881;DHT22;8557;52.068;5.198;2023-02-28T06:42:34;2.70;99.90
16881;DHT22;8557;52.068;5.198;2023-02-28T06:45:01;2.70;99.90
16881;DHT22;8557;52.068;5.198;2023-02-28T06:47:34;2.80;99.90
16881;DHT22;8557;52.068;5.198;2023-02-28T06:50:02;2.80;99.90
16881;DHT22;8557;52.068;5.198;2023-02-28T06:52:29;2.90;99.90
16881;DHT22;8557;52.068;5.198;2023-02-28T06:54:55;2.90;99.90
16881;DHT22;8557;52.068;5.198;2023-02-28T06:57:28;2.80;99.90
16881;DHT22;8557;52.068;5.198;2023-02-28T06:59:57;2.80;99.90
16881;DHT22;8557;52.068;5.198;2023-02-28T07:02:25;2.80;99.90
16881;DHT22;8557;52.068;5.198;2023-02-28T07:04:51;2.90;99.90
16881;DHT22;8557;52.068;5.198;2023-02-28T07:07:18;2.80;99.90
16881;DHT22;8557;52.068;5.198;2023-02-28T07:09:45;2.80;99.90
16881;DHT22;8557;52.068;5.198;2023-02-28T07:12:12;2.80;99.90
16881;DHT22;8557;52.068;5.198;2023-02-28T07:14:39;2.80;99.90
16881;DHT22;8557;52.068;5.198;2023-02-28T07:17:08;2.90;99.90
16881;DHT22;8557;52.068;5.198;2023-02-28T07:19:37;2.90;99.90
16881;DHT22;8557;52.068;5.198;2023-02-28T07:22:04;2.90;99.90
16881;DHT22;8557;52.068;5.198;2023-02-28T07:24:31;2.80;99.90
16881;DHT22;8557;52.068;5.198;2023-02-28T07:26:58;2.90;99.90
16881;DHT22;8557;52.068;5.198;2023-02-28T07:29:26;2.90;99.90
16881;DHT22;8557;52.068;5.198;2023-02-28T07:31:53;3.10;99.90
16881;DHT22;8557;52.068;5.198;2023-02-28T07:34:21;3.10;99.90
16881;DHT22;8557;52.068;5.198;2023-02-28T07:36:48;3.00;99.90
16881;DHT22;8557;52.068;5.198;2023-02-28T07:39:19;3.00;99.90
16881;DHT22;8557;52.068;5.198;2023-02-28T07:41:46;3.20;99.90
16881;DHT22;8557;52.068;5.198;2023-02-28T07:44:13;3.10;99.90
16881;DHT22;8557;52.068;5.198;2023-02-28T07:46:39;3.20;99.90
16881;DHT22;8557;52.068;5.198;2023-02-28T07:49:07;3.20;99.90
16881;DHT22;8557;52.068;5.198;2023-02-28T07:51:36;3.20;99.90
16881;DHT22;8557;52.068;5.198;2023-02-28T07:54:03;3.30;99.90
16881;DHT22;8557;52.068;5.198;2023-02-28T07:56:30;3.30;99.90
16881;DHT22;8557;52.068;5.198;2023-02-28T07:58:57;3.30;99.90
16881;DHT22;8557;52.068;5.198;2023-02-28T08:01:24;3.30;99.90
16881;DHT22;8557;52.068;5.198;2023-02-28T08:03:51;3.30;99.90
16881;DHT22;8557;52.068;5.198;2023-02-28T08:06:20;3.30;99.90
16881;DHT22;8557;52.068;5.198;2023-02-28T08:08:49;3.30;99.90
16881;DHT22;8557;52.068;5.198;2023-02-28T08:11:17;3.40;99.90
16881;DHT22;8557;52.068;5.198;2023-02-28T08:13:44;3.40;99.90
16881;DHT22;8557;52.068;5.198;2023-02-28T08:16:12;3.40;99.90
16881;DHT22;8557;52.068;5.198;2023-02-28T08:18:42;3.50;99.90
16881;DHT22;8557;52.068;5.198;2023-02-28T08:21:10;3.60;99.90
16881;DHT22;8557;52.068;5.198;2023-02-28T08:23:37;3.70;99.90
16881;DHT22;8557;52.068;5.198;2023-02-28T08:26:06;3.80;99.90
16881;DHT22;8557;52.068;5.198;2023-02-28T08:28:32;3.80;99.90
16881;DHT22;8557;52.068;5.198;2023-02-28T08:30:59;3.90;99.90
16881;DHT22;8557;52.068;5.198;2023-02-28T08:33:27;4.00;99.90
16881;DHT22;8557;52.068;5.198;2023-02-28T08:35:54;4.10;99.90
16881;DHT22;8557;52.068;5.198;2023-02-28T08:38:21;4.20;99.90
16881;DHT22;8557;52.068;5.198;2023-02-28T08:40:48;4.10;99.90
16881;DHT22;8557;52.068;5.198;2023-02-28T08:43:16;4.20;99.90
16881;DHT22;8557;52.068;5.198;2023-02-28T08:45:43;4.20;99.90
16881;DHT22;8557;52.068;5.198;2023-02-28T08:48:10;4.30;99.90
16881;DHT22;8557;52.068;5.198;2023-02-28T08:50:36;4.30;99.90
16881;DHT22;8557;52.068;5.198;2023-02-28T08:53:03;4.40;99.90
16881;DHT22;8557;52.068;5.198;2023-02-28T08:55:30;4.40;99.90
16881;DHT22;8557;52.068;5.198;2023-02-28T08:57:57;4.40;99.90
16881;DHT22;8557;52.068;5.198;2023-02-28T09:00:26;4.50;99.90
16881;DHT22;8557;52.068;5.198;2023-02-28T09:02:52;4.50;99.90
16881;DHT22;8557;52.068;5.198;2023-02-28T09:05:20;4.50;99.90
16881;DHT22;8557;52.068;5.198;2023-02-28T09:07:47;4.50;99.90
16881;DHT22;8557;52.068;5.198;2023-02-28T09:10:14;4.60;99.90
16881;DHT22;8557;52.068;5.198;2023-02-28T09:12:41;4.60;99.90
16881;DHT22;8557;52.068;5.198;2023-02-28T09:15:09;4.70;99.90
16881;DHT22;8557;52.068;5.198;2023-02-28T09:17:37;4.70;99.90
16881;DHT22;8557;52.068;5.198;2023-02-28T09:20:06;4.70;99.90
16881;DHT22;8557;52.068;5.198;2023-02-28T09:22:32;4.80;99.90
16881;DHT22;8557;52.068;5.198;2023-02-28T09:24:59;4.90;99.90
16881;DHT22;8557;52.068;5.198;2023-02-28T09:27:26;4.90;99.90
16881;DHT22;8557;52.068;5.198;2023-02-28T09:29:53;4.90;99.90
16881;DHT22;8557;52.068;5.198;2023-02-28T09:32:20;5.10;97.80
16881;DHT22;8557;52.068;5.198;2023-02-28T09:34:49;5.30;77.00
16881;DHT22;8557;52.068;5.198;2023-02-28T09:37:16;5.60;39.60
16881;DHT22;8557;52.068;5.198;2023-02-28T09:39:42;5.80;12.10
16881;DHT22;8557;52.068;5.198;2023-02-28T09:42:18;6.00;3.30
16881;DHT22;8557;52.068;5.198;2023-02-28T09:44:48;6.20;1.00
16881;DHT22;8557;52.068;5.198;2023-02-28T09:47:21;6.40;1.00
16881;DHT22;8557;52.068;5.198;2023-02-28T09:49:57;6.60;1.00
16881;DHT22;8557;52.068;5.198;2023-02-28T09:52:29;6.70;1.00
16881;DHT22;8557;52.068;5.198;2023-02-28T09:55:20;6.90;1.00
16881;DHT22;8557;52.068;5.198;2023-02-28T09:57:50;7.10;1.00
16881;DHT22;8557;52.068;5.198;2023-02-28T10:00:19;7.30;1.00
16881;DHT22;8557;52.068;5.198;2023-02-28T10:03:01;7.50;1.00
16881;DHT22;8557;52.068;5.198;2023-02-28T10:05:34;7.50;1.00
16881;DHT22;8557;52.068;5.198;2023-02-28T10:08:08;7.60;1.00
16881;DHT22;8557;52.068;5.198;2023-02-28T10:10:39;7.50;1.00
16881;DHT22;8557;52.068;5.198;2023-02-28T10:13:16;7.50;1.00
16881;DHT22;8557;52.068;5.198;2023-02-28T10:15:45;7.50;1.00
16881;DHT22;8557;52.068;5.198;2023-02-28T10:18:16;7.50;1.00
16881;DHT22;8557;52.068;5.198;2023-02-28T10:20:52;7.50;1.00
16881;DHT22;8557;52.068;5.198;2023-02-28T10:23:24;7.50;1.00
16881;DHT22;8557;52.068;5.198;2023-02-28T10:25:55;7.60;1.00
16881;DHT22;8557;52.068;5.198;2023-02-28T10:28:24;7.50;1.00
16881;DHT22;8557;52.068;5.198;2023-02-28T10:30:53;7.70;1.00
16881;DHT22;8557;52.068;5.198;2023-02-28T10:33:23;7.80;1.00
16881;DHT22;8557;52.068;5.198;2023-02-28T10:35:52;7.90;1.00
16881;DHT22;8557;52.068;5.198;2023-02-28T10:38:21;7.90;1.00
16881;DHT22;8557;52.068;5.198;2023-02-28T10:40:49;7.90;1.00
16881;DHT22;8557;52.068;5.198;2023-02-28T10:43:21;8.00;1.00
16881;DHT22;8557;52.068;5.198;2023-02-28T10:46:11;7.90;1.00
16881;DHT22;8557;52.068;5.198;2023-02-28T10:48:42;7.90;1.00
16881;DHT22;8557;52.068;5.198;2023-02-28T10:51:13;7.80;1.00
16881;DHT22;8557;52.068;5.198;2023-02-28T10:53:48;7.80;1.00
16881;DHT22;8557;52.068;5.198;2023-02-28T10:56:17;8.10;1.00
16881;DHT22;8557;52.068;5.198;2023-02-28T10:58:55;8.40;1.00
16881;DHT22;8557;52.068;5.198;2023-02-28T11:01:24;8.60;1.00
16881;DHT22;8557;52.068;5.198;2023-02-28T11:03:52;8.60;1.00
16881;DHT22;8557;52.068;5.198;2023-02-28T11:06:22;8.60;1.00
16881;DHT22;8557;52.068;5.198;2023-02-28T11:08:52;8.50;1.00
16881;DHT22;8557;52.068;5.198;2023-02-28T11:11:20;8.50;1.00
16881;DHT22;8557;52.068;5.198;2023-02-28T11:13:51;8.30;1.00
16881;DHT22;8557;52.068;5.198;2023-02-28T11:16:19;8.30;1.00
16881;DHT22;8557;52.068;5.198;2023-02-28T11:18:49;8.30;1.00
16881;DHT22;8557;52.068;5.198;2023-02-28T11:21:21;8.30;1.00
16881;DHT22;8557;52.068;5.198;2023-02-28T11:23:51;8.10;1.00
16881;DHT22;8557;52.068;5.198;2023-02-28T11:26:40;8.00;1.00
16881;DHT22;8557;52.068;5.198;2023-02-28T11:29:18;8.00;1.00
16881;DHT22;8557;52.068;5.198;2023-02-28T11:32:05;7.90;1.00
16881;DHT22;8557;52.068;5.198;2023-02-28T11:34:34;8.00;1.00
16881;DHT22;8557;52.068;5.198;2023-02-28T11:37:04;8.20;1.00
16881;DHT22;8557;52.068;5.198;2023-02-28T11:39:32;8.20;1.00
16881;DHT22;8557;52.068;5.198;2023-02-28T11:45:21;8.30;1.00
16881;DHT22;8557;52.068;5.198;2023-02-28T11:47:56;8.30;1.00
16881;DHT22;8557;52.068;5.198;2023-02-28T11:50:42;8.40;1.00
16881;DHT22;8557;52.068;5.198;2023-02-28T11:53:21;8.40;1.00
16881;DHT22;8557;52.068;5.198;2023-02-28T11:55:53;8.50;1.00
16881;DHT22;8557;52.068;5.198;2023-02-28T11:58:29;8.40;1.00
16881;DHT22;8557;52.068;5.198;2023-02-28T12:01:07;8.50;1.00
16881;DHT22;8557;52.068;5.198;2023-02-28T12:03:43;8.60;1.00
16881;DHT22;8557;52.068;5.198;2023-02-28T12:06:18;8.70;1.00
16881;DHT22;8557;52.068;5.198;2023-02-28T12:08:58;8.80;1.00
16881;DHT22;8557;52.068;5.198;2023-02-28T12:11:36;9.00;1.00
16881;DHT22;8557;52.068;5.198;2023-02-28T12:14:34;9.10;1.00
16881;DHT22;8557;52.068;5.198;2023-02-28T12:17:16;9.20;1.00
16881;DHT22;8557;52.068;5.198;2023-02-28T12:19:52;9.50;1.00
16881;DHT22;8557;52.068;5.198;2023-02-28T12:22:28;9.70;1.00
16881;DHT22;8557;52.068;5.198;2023-02-28T12:25:22;9.70;1.00
16881;DHT22;8557;52.068;5.198;2023-02-28T12:27:51;9.80;1.00
16881;DHT22;8557;52.068;5.198;2023-02-28T12:30:22;10.00;1.00
16881;DHT22;8557;52.068;5.198;2023-02-28T12:32:54;10.10;1.00
16881;DHT22;8557;52.068;5.198;2023-02-28T12:35:24;10.30;1.00
16881;DHT22;8557;52.068;5.198;2023-02-28T12:37:56;10.30;1.00
16881;DHT22;8557;52.068;5.198;2023-02-28T12:40:34;10.40;1.00
16881;DHT22;8557;52.068;5.198;2023-02-28T12:43:07;10.40;1.00
16881;DHT22;8557;52.068;5.198;2023-02-28T12:45:41;10.60;1.00
16881;DHT22;8557;52.068;5.198;2023-02-28T12:48:13;10.80;1.00
16881;DHT22;8557;52.068;5.198;2023-02-28T12:50:41;10.80;1.00
16881;DHT22;8557;52.068;5.198;2023-02-28T12:53:15;10.80;1.00
16881;DHT22;8557;52.068;5.198;2023-02-28T12:55:48;10.90;99.90
16881;DHT22;8557;52.068;5.198;2023-02-28T12:58:22;11.20;99.90
16881;DHT22;8557;52.068;5.198;2023-02-28T13:01:10;11.50;99.90
16881;DHT22;8557;52.068;5.198;2023-02-28T13:03:51;12.30;99.90
16881;DHT22;8557;52.068;5.198;2023-02-28T13:06:42;14.10;99.90
16881;DHT22;8557;52.068;5.198;2023-02-28T13:09:13;17.20;1.00
16881;DHT22;8557;52.068;5.198;2023-02-28T13:11:44;19.70;1.00
16881;DHT22;8557;52.068;5.198;2023-02-28T13:14:24;22.00;19.70
16881;DHT22;8557;52.068;5.198;2023-02-28T13:17:02;23.60;99.90
16881;DHT22;8557;52.068;5.198;2023-02-28T13:19:31;24.50;99.90
16881;DHT22;8557;52.068;5.198;2023-02-28T13:21:59;25.10;99.90
16881;DHT22;8557;52.068;5.198;2023-02-28T13:24:39;25.30;99.90
16881;DHT22;8557;52.068;5.198;2023-02-28T13:27:36;25.70;99.90
16881;DHT22;8557;52.068;5.198;2023-02-28T13:33:26;26.80;99.90
16881;DHT22;8557;52.068;5.198;2023-02-28T13:36:23;27.40;99.90
16881;DHT22;8557;52.068;5.198;2023-02-28T13:38:52;27.60;99.90
16881;DHT22;8557;52.068;5.198;2023-02-28T13:41:45;27.50;99.90
16881;DHT22;8557;52.068;5.198;2023-02-28T13:44:15;27.90;99.90
16881;DHT22;8557;52.068;5.198;2023-02-28T13:47:20;28.00;99.90
16881;DHT22;8557;52.068;5.198;2023-02-28T13:49:48;28.50;99.90
16881;DHT22;8557;52.068;5.198;2023-02-28T13:52:20;28.00;99.90
16881;DHT22;8557;52.068;5.198;2023-02-28T13:55:19;28.30;99.90
16881;DHT22;8557;52.068;5.198;2023-02-28T13:58:04;28.50;99.90
16881;DHT22;8557;52.068;5.198;2023-02-28T14:00:47;28.60;99.90
16881;DHT22;8557;52.068;5.198;2023-02-28T14:03:36;28.70;99.90
16881;DHT22;8557;52.068;5.198;2023-02-28T14:06:15;29.00;99.90
16881;DHT22;8557;52.068;5.198;2023-02-28T14:08:49;28.80;99.90
16881;DHT22;8557;52.068;5.198;2023-02-28T14:11:33;28.10;99.90
16881;DHT22;8557;52.068;5.198;2023-02-28T14:14:01;28.20;99.90
16881;DHT22;8557;52.068;5.198;2023-02-28T14:16:37;28.30;99.90
16881;DHT22;8557;52.068;5.198;2023-02-28T14:19:11;28.60;99.90
16881;DHT22;8557;52.068;5.198;2023-02-28T14:21:43;27.10;99.90
16881;DHT22;8557;52.068;5.198;2023-02-28T14:24:32;27.10;99.90
16881;DHT22;8557;52.068;5.198;2023-02-28T14:27:13;27.10;99.90
16881;DHT22;8557;52.068;5.198;2023-02-28T14:33:05;28.00;99.90
16881;DHT22;8557;52.068;5.198;2023-02-28T14:35:54;27.80;99.90
16881;DHT22;8557;52.068;5.198;2023-02-28T14:38:27;27.30;99.90
16881;DHT22;8557;52.068;5.198;2023-02-28T14:41:00;27.20;99.90
16881;DHT22;8557;52.068;5.198;2023-02-28T14:43:28;27.30;99.90
16881;DHT22;8557;52.068;5.198;2023-02-28T14:45:57;27.20;99.90
16881;DHT22;8557;52.068;5.198;2023-02-28T14:48:26;26.90;99.90
16881;DHT22;8557;52.068;5.198;2023-02-28T14:50:56;26.60;99.90
16881;DHT22;8557;52.068;5.198;2023-02-28T14:53:26;26.50;19.50
16881;DHT22;8557;52.068;5.198;2023-02-28T14:55:54;26.40;1.00
16881;DHT22;8557;52.068;5.198;2023-02-28T14:58:23;25.20;1.00
16881;DHT22;8557;52.068;5.198;2023-02-28T15:00:52;24.30;99.90
16881;DHT22;8557;52.068;5.198;2023-02-28T15:03:22;23.70;1.00
16881;DHT22;8557;52.068;5.198;2023-02-28T15:05:55;23.50;1.00
16881;DHT22;8557;52.068;5.198;2023-02-28T15:08:23;23.20;1.00
16881;DHT22;8557;52.068;5.198;2023-02-28T15:10:53;22.60;1.00
16881;DHT22;8557;52.068;5.198;2023-02-28T15:13:20;21.70;79.90
16881;DHT22;8557;52.068;5.198;2023-02-28T15:15:51;21.20;1.00
16881;DHT22;8557;52.068;5.198;2023-02-28T15:18:26;20.90;99.90
16881;DHT22;8557;52.068;5.198;2023-02-28T15:20:55;20.90;99.90
16881;DHT22;8557;52.068;5.198;2023-02-28T15:23:24;19.60;1.00
16881;DHT22;8557;52.068;5.198;2023-02-28T15:25:51;18.70;99.90
16881;DHT22;8557;52.068;5.198;2023-02-28T15:28:20;18.60;73.30
16881;DHT22;8557;52.068;5.198;2023-02-28T15:30:54;17.90;1.00
16881;DHT22;8557;52.068;5.198;2023-02-28T15:33:23;16.90;1.00
16881;DHT22;8557;52.068;5.198;2023-02-28T15:35:51;16.50;1.00
16881;DHT22;8557;52.068;5.198;2023-02-28T15:38:23;17.00;1.00
16881;DHT22;8557;52.068;5.198;2023-02-28T15:40:52;16.60;1.00
16881;DHT22;8557;52.068;5.198;2023-02-28T15:43:26;16.20;24.30
16881;DHT22;8557;52.068;5.198;2023-02-28T15:45:57;15.80;1.00
16881;DHT22;8557;52.068;5.198;2023-02-28T15:48:26;15.20;1.00
16881;DHT22;8557;52.068;5.198;2023-02-28T15:50:55;14.60;1.00
16881;DHT22;8557;52.068;5.198;2023-02-28T15:53:27;14.00;1.00
16881;DHT22;8557;52.068;5.198;2023-02-28T15:55:58;13.10;1.00
16881;DHT22;8557;52.068;5.198;2023-02-28T15:58:25;12.40;1.00
16881;DHT22;8557;52.068;5.198;2023-02-28T16:01:07;12.00;99.90
16881;DHT22;8557;52.068;5.198;2023-02-28T16:03:39;11.40;1.00
16881;DHT22;8557;52.068;5.198;2023-02-28T16:06:38;11.00;1.00
16881;DHT22;8557;52.068;5.198;2023-02-28T16:09:10;10.70;99.90
16881;DHT22;8557;52.068;5.198;2023-02-28T16:11:39;10.60;99.90
16881;DHT22;8557;52.068;5.198;2023-02-28T16:14:13;10.30;66.50
16881;DHT22;8557;52.068;5.198;2023-02-28T16:16:43;10.00;1.00
16881;DHT22;8557;52.068;5.198;2023-02-28T16:19:10;9.80;1.00
16881;DHT22;8557;52.068;5.198;2023-02-28T16:21:37;9.50;1.00
16881;DHT22;8557;52.068;5.198;2023-02-28T16:24:04;9.20;1.00
16881;DHT22;8557;52.068;5.198;2023-02-28T16:26:33;8.90;1.00
16881;DHT22;8557;52.068;5.198;2023-02-28T16:29:01;8.80;1.00
16881;DHT22;8557;52.068;5.198;2023-02-28T16:31:28;8.70;1.00
16881;DHT22;8557;52.068;5.198;2023-02-28T16:33:55;8.60;1.00
16881;DHT22;8557;52.068;5.198;2023-02-28T16:36:23;8.50;1.00
16881;DHT22;8557;52.068;5.198;2023-02-28T16:38:51;8.40;1.00
16881;DHT22;8557;52.068;5.198;2023-02-28T16:41:20;8.40;99.90
16881;DHT22;8557;52.068;5.198;2023-02-28T16:43:51;8.30;99.90